Sacramento, California
Traffic Map
Current Weather Conditions
Sacramento, California
Clear
Clear
66°
Feels Like: 66°
Wind Chill: 66° Ceiling: Unl
Heat Index: 66° Visibility: 10mi
Dew Point: 56° Wind: 3mph
Humidity: 70% Direction: 180° (S)
Pressure: 29.88in Gusts: 0mph
Raw Report DataKSAC 311053Z AUTO 18003KT 10SM CLR 19/13 A2988 RMK AO2 SLP117 T01890133
Traffic Incident Summary
Active as of:
Severity:
Category:
InformationThere was an issue retrieving the traffic information for this location. Please try a different location or try again shortly.
Advertisements
Track Severe Weather on mobile